SVG weather

Stavanger Airport Sola
Stavanger, Rogaland, Norway

Public forecast

Using degrees Celsius for public forecast. Weather courtesy of forecast.io.

Current aviation weather report (METAR) for Stavanger Airport Sola

Retrieved 2020/01/27 01:50 UTC (46 minutes ago):

ENZV 270150Z 19013KT 7000 SCT006 BKN010 07/06 Q0998

Aviation forecast (TAF) for Stavanger Airport Sola

Retrieved 2020-01-27 00:57 UTC (2 hours ago):

TAF ENZV 262300Z 2700/2724 18015KT 9999 BKN012 TEMPO 2700/2703 18018G28KT TEMPO 2700/2706 3000 RADZ BKN007 BECMG 2700/2703 24008KT BECMG 2708/2710 18010KT TEMPO 2712/2718 18015G25KT SHRA BKN014CB